sensor_id;sensor_type;location;lat;lon;timestamp;pressure;altitude;pressure_sealevel;temperature;humidity
45255;BME280;30989;52.078;21.014;2024-02-16T00:00:43;165490.25;;;6.63;100.00
45255;BME280;30989;52.078;21.014;2024-02-16T00:03:12;165482.22;;;6.60;100.00
45255;BME280;30989;52.078;21.014;2024-02-16T00:05:37;165482.22;;;6.60;100.00
45255;BME280;30989;52.078;21.014;2024-02-16T00:08:03;165468.88;;;6.55;100.00
45255;BME280;30989;52.078;21.014;2024-02-16T00:10:29;165484.91;;;6.61;100.00
45255;BME280;30989;52.078;21.014;2024-02-16T00:12:56;165488.91;;;6.63;100.00
45255;BME280;30989;52.078;21.014;2024-02-16T00:15:22;165484.91;;;6.61;100.00
45255;BME280;30989;52.078;21.014;2024-02-16T00:17:47;165488.91;;;6.63;100.00
45255;BME280;30989;52.078;21.014;2024-02-16T00:20:14;165490.25;;;6.63;100.00
45255;BME280;30989;52.078;21.014;2024-02-16T00:22:40;165479.56;;;6.59;100.00
45255;BME280;30989;52.078;21.014;2024-02-16T00:25:06;165476.88;;;6.58;100.00
45255;BME280;30989;52.078;21.014;2024-02-16T00:27:31;165482.22;;;6.60;100.00
45255;BME280;30989;52.078;21.014;2024-02-16T00:29:57;165484.91;;;6.61;100.00
45255;BME280;30989;52.078;21.014;2024-02-16T00:32:22;165483.56;;;6.61;100.00
45255;BME280;30989;52.078;21.014;2024-02-16T00:34:50;165488.91;;;6.63;100.00
45255;BME280;30989;52.078;21.014;2024-02-16T00:37:18;165484.91;;;6.61;100.00
45255;BME280;30989;52.078;21.014;2024-02-16T00:39:44;165491.59;;;6.64;100.00
45255;BME280;30989;52.078;21.014;2024-02-16T00:42:09;165476.88;;;6.58;100.00
45255;BME280;30989;52.078;21.014;2024-02-16T00:44:36;165488.91;;;6.63;100.00
45255;BME280;30989;52.078;21.014;2024-02-16T00:47:02;165490.25;;;6.63;100.00
45255;BME280;30989;52.078;21.014;2024-02-16T00:49:34;165484.91;;;6.61;100.00
45255;BME280;30989;52.078;21.014;2024-02-16T00:51:59;165467.53;;;6.55;100.00
45255;BME280;30989;52.078;21.014;2024-02-16T00:54:25;165480.91;;;6.60;100.00
45255;BME280;30989;52.078;21.014;2024-02-16T00:56:51;165471.53;;;6.56;100.00
45255;BME280;30989;52.078;21.014;2024-02-16T00:59:17;165470.22;;;6.56;100.00
45255;BME280;30989;52.078;21.014;2024-02-16T01:01:42;165476.88;;;6.58;100.00
45255;BME280;30989;52.078;21.014;2024-02-16T01:04:08;165456.84;;;6.51;100.00
45255;BME280;30989;52.078;21.014;2024-02-16T01:06:33;165470.22;;;6.56;100.00
45255;BME280;30989;52.078;21.014;2024-02-16T01:08:59;165463.53;;;6.53;100.00
45255;BME280;30989;52.078;21.014;2024-02-16T01:11:24;165448.84;;;6.47;100.00
45255;BME280;30989;52.078;21.014;2024-02-16T01:13:52;165431.47;;;6.41;100.00
45255;BME280;30989;52.078;21.014;2024-02-16T01:16:17;165420.78;;;6.37;100.00
45255;BME280;30989;52.078;21.014;2024-02-16T01:18:44;165422.13;;;6.37;100.00
45255;BME280;30989;52.078;21.014;2024-02-16T01:21:10;165404.75;;;6.31;100.00
45255;BME280;30989;52.078;21.014;2024-02-16T01:23:36;165396.75;;;6.28;100.00
45255;BME280;30989;52.078;21.014;2024-02-16T01:26:01;165386.06;;;6.24;100.00
45255;BME280;30989;52.078;21.014;2024-02-16T01:28:27;165374.03;;;6.19;100.00
45255;BME280;30989;52.078;21.014;2024-02-16T01:30:52;165364.69;;;6.16;100.00
45255;BME280;30989;52.078;21.014;2024-02-16T01:33:19;165350.00;;;6.10;100.00
45255;BME280;30989;52.078;21.014;2024-02-16T01:35:44;165327.31;;;6.01;100.00
45255;BME280;30989;52.078;21.014;2024-02-16T01:38:11;165316.63;;;5.97;100.00
45255;BME280;30989;52.078;21.014;2024-02-16T01:40:36;165316.63;;;5.97;100.00
45255;BME280;30989;52.078;21.014;2024-02-16T01:43:02;165303.28;;;5.92;100.00
45255;BME280;30989;52.078;21.014;2024-02-16T01:45:27;165293.88;;;5.89;100.00
45255;BME280;30989;52.078;21.014;2024-02-16T01:47:53;165273.84;;;5.81;100.00
45255;BME280;30989;52.078;21.014;2024-02-16T01:50:20;165264.50;;;5.77;100.00
45255;BME280;30989;52.078;21.014;2024-02-16T01:52:48;165252.47;;;5.73;100.00
45255;BME280;30989;52.078;21.014;2024-02-16T01:55:15;165233.78;;;5.66;100.00
45255;BME280;30989;52.078;21.014;2024-02-16T01:57:45;165223.09;;;5.62;100.00
45255;BME280;30989;52.078;21.014;2024-02-16T02:00:12;165204.41;;;5.55;100.00
45255;BME280;30989;52.078;21.014;2024-02-16T02:02:40;165204.41;;;5.55;100.00
45255;BME280;30989;52.078;21.014;2024-02-16T02:05:06;165193.75;;;5.50;100.00
45255;BME280;30989;52.078;21.014;2024-02-16T02:07:32;165187.06;;;5.48;100.00
45255;BME280;30989;52.078;21.014;2024-02-16T02:09:58;165164.38;;;5.39;100.00
45255;BME280;30989;52.078;21.014;2024-02-16T02:12:24;165157.69;;;5.37;100.00
45255;BME280;30989;52.078;21.014;2024-02-16T02:14:49;165169.72;;;5.41;100.00
45255;BME280;30989;52.078;21.014;2024-02-16T02:17:17;165161.72;;;5.38;100.00
45255;BME280;30989;52.078;21.014;2024-02-16T02:19:48;165159.03;;;5.37;100.00
45255;BME280;30989;52.078;21.014;2024-02-16T02:22:18;165156.38;;;5.36;100.00
45255;BME280;30989;52.078;21.014;2024-02-16T02:24:44;165156.38;;;5.36;100.00
45255;BME280;30989;52.078;21.014;2024-02-16T02:27:11;165151.03;;;5.34;100.00
45255;BME280;30989;52.078;21.014;2024-02-16T02:29:37;165125.66;;;5.25;100.00
45255;BME280;30989;52.078;21.014;2024-02-16T02:32:02;165110.94;;;5.19;100.00
45255;BME280;30989;52.078;21.014;2024-02-16T02:34:28;165110.94;;;5.19;100.00
45255;BME280;30989;52.078;21.014;2024-02-16T02:36:53;165097.59;;;5.14;100.00
45255;BME280;30989;52.078;21.014;2024-02-16T02:39:19;165105.59;;;5.17;100.00
45255;BME280;30989;52.078;21.014;2024-02-16T02:41:44;165078.91;;;5.07;100.00
45255;BME280;30989;52.078;21.014;2024-02-16T02:44:10;165070.91;;;5.04;100.00
45255;BME280;30989;52.078;21.014;2024-02-16T02:46:36;165073.56;;;5.05;100.00
45255;BME280;30989;52.078;21.014;2024-02-16T02:49:02;165060.22;;;5.00;100.00
45255;BME280;30989;52.078;21.014;2024-02-16T02:51:29;165046.88;;;4.95;100.00
45255;BME280;30989;52.078;21.014;2024-02-16T02:53:54;165044.22;;;4.94;100.00
45255;BME280;30989;52.078;21.014;2024-02-16T02:56:20;165040.22;;;4.92;100.00
45255;BME280;30989;52.078;21.014;2024-02-16T02:58:45;165014.84;;;4.82;100.00
45255;BME280;30989;52.078;21.014;2024-02-16T03:01:12;165017.53;;;4.83;100.00
45255;BME280;30989;52.078;21.014;2024-02-16T03:03:38;165014.84;;;4.82;100.00
45255;BME280;30989;52.078;21.014;2024-02-16T03:06:05;164990.84;;;4.73;100.00
45255;BME280;30989;52.078;21.014;2024-02-16T03:08:30;164984.19;;;4.71;100.00
45255;BME280;30989;52.078;21.014;2024-02-16T03:10:56;164988.19;;;4.72;100.00
45255;BME280;30989;52.078;21.014;2024-02-16T03:13:22;164977.50;;;4.68;100.00
45255;BME280;30989;52.078;21.014;2024-02-16T03:15:48;164974.84;;;4.67;100.00
45255;BME280;30989;52.078;21.014;2024-02-16T03:18:13;164966.84;;;4.64;100.00
45255;BME280;30989;52.078;21.014;2024-02-16T03:20:40;164961.50;;;4.62;100.00
45255;BME280;30989;52.078;21.014;2024-02-16T03:23:05;164942.81;;;4.55;100.00
45255;BME280;30989;52.078;21.014;2024-02-16T03:25:31;164928.16;;;4.49;100.00
45255;BME280;30989;52.078;21.014;2024-02-16T03:27:56;164936.16;;;4.52;100.00
45255;BME280;30989;52.078;21.014;2024-02-16T03:30:22;164918.81;;;4.46;100.00
45255;BME280;30989;52.078;21.014;2024-02-16T03:32:48;164921.47;;;4.47;100.00
45255;BME280;30989;52.078;21.014;2024-02-16T03:35:14;164912.13;;;4.43;100.00
45255;BME280;30989;52.078;21.014;2024-02-16T03:37:40;164908.13;;;4.42;100.00
45255;BME280;30989;52.078;21.014;2024-02-16T03:40:07;164888.13;;;4.34;100.00
45255;BME280;30989;52.078;21.014;2024-02-16T03:42:35;164896.13;;;4.37;100.00
45255;BME280;30989;52.078;21.014;2024-02-16T03:45:02;164874.78;;;4.29;100.00
45255;BME280;30989;52.078;21.014;2024-02-16T03:47:28;164881.47;;;4.32;100.00
45255;BME280;30989;52.078;21.014;2024-02-16T03:49:53;164877.47;;;4.30;100.00
45255;BME280;30989;52.078;21.014;2024-02-16T03:52:19;164862.78;;;4.25;100.00
45255;BME280;30989;52.078;21.014;2024-02-16T03:54:44;164865.47;;;4.26;100.00
45255;BME280;30989;52.078;21.014;2024-02-16T03:57:14;164857.44;;;4.22;100.00
45255;BME280;30989;52.078;21.014;2024-02-16T03:59:45;164853.44;;;4.21;100.00
45255;BME280;30989;52.078;21.014;2024-02-16T04:02:11;164846.78;;;4.18;100.00
45255;BME280;30989;52.078;21.014;2024-02-16T04:04:39;164841.44;;;4.16;100.00
45255;BME280;30989;52.078;21.014;2024-02-16T04:07:05;164830.78;;;4.12;100.00
45255;BME280;30989;52.078;21.014;2024-02-16T04:09:32;164828.13;;;4.11;100.00
45255;BME280;30989;52.078;21.014;2024-02-16T04:11:58;164822.78;;;4.09;100.00
45255;BME280;30989;52.078;21.014;2024-02-16T04:14:24;164778.78;;;3.93;100.00
45255;BME280;30989;52.078;21.014;2024-02-16T04:16:49;164801.44;;;4.01;100.00
45255;BME280;30989;52.078;21.014;2024-02-16T04:19:14;164806.78;;;4.03;100.00
45255;BME280;30989;52.078;21.014;2024-02-16T04:21:40;164796.09;;;3.99;100.00
45255;BME280;30989;52.078;21.014;2024-02-16T04:24:06;164800.09;;;4.01;100.00
45255;BME280;30989;52.078;21.014;2024-02-16T04:26:31;164785.44;;;3.95;100.00
45255;BME280;30989;52.078;21.014;2024-02-16T04:28:57;164785.44;;;3.95;100.00
45255;BME280;30989;52.078;21.014;2024-02-16T04:31:22;164786.78;;;3.96;100.00
45255;BME280;30989;52.078;21.014;2024-02-16T04:33:48;164785.44;;;3.95;100.00
45255;BME280;30989;52.078;21.014;2024-02-16T04:36:13;164761.44;;;3.86;100.00
45255;BME280;30989;52.078;21.014;2024-02-16T04:38:40;164776.09;;;3.92;100.00
45255;BME280;30989;52.078;21.014;2024-02-16T04:41:06;164773.44;;;3.91;100.00
45255;BME280;30989;52.078;21.014;2024-02-16T04:43:32;164766.78;;;3.88;100.00
45255;BME280;30989;52.078;21.014;2024-02-16T04:45:57;164750.78;;;3.82;100.00
45255;BME280;30989;52.078;21.014;2024-02-16T04:48:23;164741.44;;;3.78;100.00
45255;BME280;30989;52.078;21.014;2024-02-16T04:50:48;164757.44;;;3.84;100.00
45255;BME280;30989;52.078;21.014;2024-02-16T04:53:14;164738.78;;;3.77;100.00
45255;BME280;30989;52.078;21.014;2024-02-16T04:55:39;164742.78;;;3.79;100.00
45255;BME280;30989;52.078;21.014;2024-02-16T04:58:05;164738.78;;;3.77;100.00
45255;BME280;30989;52.078;21.014;2024-02-16T05:00:37;164710.78;;;3.67;100.00
45255;BME280;30989;52.078;21.014;2024-02-16T05:03:03;164701.44;;;3.63;100.00
45255;BME280;30989;52.078;21.014;2024-02-16T05:05:29;164713.44;;;3.68;100.00
45255;BME280;30989;52.078;21.014;2024-02-16T05:07:56;164705.44;;;3.65;100.00
45255;BME280;30989;52.078;21.014;2024-02-16T05:10:22;164714.78;;;3.68;100.00
45255;BME280;30989;52.078;21.014;2024-02-16T05:12:48;164708.13;;;3.66;100.00
45255;BME280;30989;52.078;21.014;2024-02-16T05:15:13;164689.44;;;3.59;100.00
45255;BME280;30989;52.078;21.014;2024-02-16T05:17:40;164682.78;;;3.56;100.00
45255;BME280;30989;52.078;21.014;2024-02-16T05:20:11;164678.78;;;3.54;100.00
45255;BME280;30989;52.078;21.014;2024-02-16T05:22:44;164682.78;;;3.56;100.00
45255;BME280;30989;52.078;21.014;2024-02-16T05:25:12;164673.44;;;3.52;100.00
45255;BME280;30989;52.078;21.014;2024-02-16T05:27:37;164646.78;;;3.42;100.00
45255;BME280;30989;52.078;21.014;2024-02-16T05:30:04;164649.47;;;3.43;100.00
45255;BME280;30989;52.078;21.014;2024-02-16T05:32:36;164638.78;;;3.39;100.00
45255;BME280;30989;52.078;21.014;2024-02-16T05:35:05;164641.47;;;3.40;100.00
45255;BME280;30989;52.078;21.014;2024-02-16T05:37:40;164649.47;;;3.43;100.00
45255;BME280;30989;52.078;21.014;2024-02-16T05:40:10;164640.13;;;3.40;100.00
45255;BME280;30989;52.078;21.014;2024-02-16T05:42:48;164625.47;;;3.34;100.00
45255;BME280;30989;52.078;21.014;2024-02-16T05:45:14;164632.13;;;3.37;100.00
45255;BME280;30989;52.078;21.014;2024-02-16T05:47:45;164628.13;;;3.35;100.00
45255;BME280;30989;52.078;21.014;2024-02-16T05:50:13;164612.13;;;3.29;100.00
45255;BME280;30989;52.078;21.014;2024-02-16T05:52:39;164609.47;;;3.28;100.00
45255;BME280;30989;52.078;21.014;2024-02-16T05:55:10;164613.47;;;3.30;100.00
45255;BME280;30989;52.078;21.014;2024-02-16T05:57:36;164598.81;;;3.24;100.00
45255;BME280;30989;52.078;21.014;2024-02-16T06:00:06;164613.47;;;3.30;100.00
45255;BME280;30989;52.078;21.014;2024-02-16T06:02:33;164617.47;;;3.31;100.00
45255;BME280;30989;52.078;21.014;2024-02-16T06:04:59;164618.81;;;3.32;100.00
45255;BME280;30989;52.078;21.014;2024-02-16T06:07:25;164618.81;;;3.32;100.00
45255;BME280;30989;52.078;21.014;2024-02-16T06:09:51;164628.13;;;3.35;100.00
45255;BME280;30989;52.078;21.014;2024-02-16T06:12:17;164614.81;;;3.30;100.00
45255;BME280;30989;52.078;21.014;2024-02-16T06:14:42;164641.47;;;3.40;100.00
45255;BME280;30989;52.078;21.014;2024-02-16T06:17:08;164624.13;;;3.34;100.00
45255;BME280;30989;52.078;21.014;2024-02-16T06:19:35;164649.47;;;3.43;100.00
45255;BME280;30989;52.078;21.014;2024-02-16T06:22:01;164657.47;;;3.46;100.00
45255;BME280;30989;52.078;21.014;2024-02-16T06:24:26;164665.47;;;3.49;100.00
45255;BME280;30989;52.078;21.014;2024-02-16T06:26:53;164670.78;;;3.51;100.00
45255;BME280;30989;52.078;21.014;2024-02-16T06:29:19;164678.78;;;3.54;100.00
45255;BME280;30989;52.078;21.014;2024-02-16T06:31:46;164690.78;;;3.59;100.00
45255;BME280;30989;52.078;21.014;2024-02-16T06:34:13;164697.44;;;3.62;100.00
45255;BME280;30989;52.078;21.014;2024-02-16T06:36:39;164702.78;;;3.64;100.00
45255;BME280;30989;52.078;21.014;2024-02-16T06:39:04;164692.13;;;3.60;100.00
45255;BME280;30989;52.078;21.014;2024-02-16T06:41:30;164724.09;;;3.72;100.00
45255;BME280;30989;52.078;21.014;2024-02-16T06:43:55;164729.44;;;3.74;100.00
45255;BME280;30989;52.078;21.014;2024-02-16T06:46:20;164742.78;;;3.79;100.00
45255;BME280;30989;52.078;21.014;2024-02-16T06:48:47;164753.44;;;3.83;100.00
45255;BME280;30989;52.078;21.014;2024-02-16T06:51:13;164769.44;;;3.89;100.00
45255;BME280;30989;52.078;21.014;2024-02-16T06:53:39;164781.44;;;3.94;100.00
45255;BME280;30989;52.078;21.014;2024-02-16T06:56:04;164777.44;;;3.92;100.00
45255;BME280;30989;52.078;21.014;2024-02-16T06:58:30;164804.13;;;4.02;100.00
45255;BME280;30989;52.078;21.014;2024-02-16T07:00:55;164821.44;;;4.09;100.00
45255;BME280;30989;52.078;21.014;2024-02-16T07:03:22;164833.44;;;4.13;100.00
45255;BME280;30989;52.078;21.014;2024-02-16T07:05:49;164849.44;;;4.19;100.00
45255;BME280;30989;52.078;21.014;2024-02-16T07:08:14;164861.47;;;4.24;100.00
45255;BME280;30989;52.078;21.014;2024-02-16T07:10:40;164878.78;;;4.31;100.00
45255;BME280;30989;52.078;21.014;2024-02-16T07:13:06;164890.81;;;4.35;100.00
45255;BME280;30989;52.078;21.014;2024-02-16T07:15:31;164872.13;;;4.28;100.00
45255;BME280;30989;52.078;21.014;2024-02-16T07:17:57;164893.47;;;4.36;100.00
45255;BME280;30989;52.078;21.014;2024-02-16T07:20:23;164930.81;;;4.50;100.00
45255;BME280;30989;52.078;21.014;2024-02-16T07:22:48;164942.81;;;4.55;100.00
45255;BME280;30989;52.078;21.014;2024-02-16T07:25:17;164962.84;;;4.63;100.00
45255;BME280;30989;52.078;21.014;2024-02-16T07:27:43;164980.19;;;4.69;100.00
45255;BME280;30989;52.078;21.014;2024-02-16T07:30:09;164998.84;;;4.76;100.00
45255;BME280;30989;52.078;21.014;2024-02-16T07:32:36;164990.84;;;4.73;100.00
45255;BME280;30989;52.078;21.014;2024-02-16T07:35:02;165018.88;;;4.84;100.00
45255;BME280;30989;52.078;21.014;2024-02-16T07:37:28;165025.53;;;4.86;100.00
45255;BME280;30989;52.078;21.014;2024-02-16T07:39:54;165076.25;;;5.06;100.00
45255;BME280;30989;52.078;21.014;2024-02-16T07:42:19;165089.59;;;5.11;100.00
45255;BME280;30989;52.078;21.014;2024-02-16T07:44:45;165113.66;;;5.20;100.00
45255;BME280;30989;52.078;21.014;2024-02-16T07:47:11;165143.03;;;5.31;100.00
45255;BME280;30989;52.078;21.014;2024-02-16T07:49:40;165151.03;;;5.34;100.00
45255;BME280;30989;52.078;21.014;2024-02-16T07:52:06;165165.72;;;5.40;100.00
45255;BME280;30989;52.078;21.014;2024-02-16T07:54:31;165212.44;;;5.58;100.00
45255;BME280;30989;52.078;21.014;2024-02-16T07:56:57;165217.78;;;5.60;100.00
45255;BME280;30989;52.078;21.014;2024-02-16T07:59:25;165256.50;;;5.74;100.00
45255;BME280;30989;52.078;21.014;2024-02-16T08:01:50;165273.84;;;5.81;100.00
45255;BME280;30989;52.078;21.014;2024-02-16T08:04:16;165265.84;;;5.78;100.00
45255;BME280;30989;52.078;21.014;2024-02-16T08:06:41;165303.28;;;5.92;100.00
45255;BME280;30989;52.078;21.014;2024-02-16T08:09:07;165311.28;;;5.95;100.00
45255;BME280;30989;52.078;21.014;2024-02-16T08:11:32;165347.34;;;6.09;100.00
45255;BME280;30989;52.078;21.014;2024-02-16T08:13:58;165372.72;;;6.19;100.00
45255;BME280;30989;52.078;21.014;2024-02-16T08:16:27;165379.38;;;6.21;100.00
45255;BME280;30989;52.078;21.014;2024-02-16T08:18:53;165396.75;;;6.28;100.00
45255;BME280;30989;52.078;21.014;2024-02-16T08:21:18;165422.13;;;6.37;100.00
45255;BME280;30989;52.078;21.014;2024-02-16T08:23:44;165444.84;;;6.46;100.00
45255;BME280;30989;52.078;21.014;2024-02-16T08:26:09;165468.88;;;6.55;100.00
45255;BME280;30989;52.078;21.014;2024-02-16T08:28:35;165479.56;;;6.59;100.00
45255;BME280;30989;52.078;21.014;2024-02-16T08:31:00;165511.63;;;6.71;100.00
45255;BME280;30989;52.078;21.014;2024-02-16T08:33:25;165519.63;;;6.74;100.00
45255;BME280;30989;52.078;21.014;2024-02-16T08:35:51;165554.38;;;6.88;100.00
45255;BME280;30989;52.078;21.014;2024-02-16T08:38:17;165574.41;;;6.95;100.00
45255;BME280;30989;52.078;21.014;2024-02-16T08:40:42;165595.78;;;7.03;100.00
45255;BME280;30989;52.078;21.014;2024-02-16T08:43:07;165598.47;;;7.04;100.00
45255;BME280;30989;52.078;21.014;2024-02-16T08:45:33;165654.59;;;7.26;100.00
45255;BME280;30989;52.078;21.014;2024-02-16T08:47:59;165669.28;;;7.31;100.00
45255;BME280;30989;52.078;21.014;2024-02-16T08:50:26;165680.00;;;7.35;100.00
45255;BME280;30989;52.078;21.014;2024-02-16T08:52:52;165692.00;;;7.40;100.00
45255;BME280;30989;52.078;21.014;2024-02-16T08:55:18;165709.38;;;7.47;100.00
45255;BME280;30989;52.078;21.014;2024-02-16T08:57:43;165726.78;;;7.53;100.00
45255;BME280;30989;52.078;21.014;2024-02-16T09:00:09;165765.53;;;7.68;100.00
45255;BME280;30989;52.078;21.014;2024-02-16T09:02:35;165784.25;;;7.75;100.00
45255;BME280;30989;52.078;21.014;2024-02-16T09:05:00;165811.00;;;7.85;100.00
45255;BME280;30989;52.078;21.014;2024-02-16T09:07:26;165829.72;;;7.92;100.00
45255;BME280;30989;52.078;21.014;2024-02-16T09:09:53;165851.09;;;8.00;100.00
45255;BME280;30989;52.078;21.014;2024-02-16T09:12:19;165869.81;;;8.07;100.00
45255;BME280;30989;52.078;21.014;2024-02-16T09:14:44;165889.88;;;8.15;100.00
45255;BME280;30989;52.078;21.014;2024-02-16T09:17:10;165920.63;;;8.27;100.00
45255;BME280;30989;52.078;21.014;2024-02-16T09:19:35;165948.78;;;8.37;100.00
45255;BME280;30989;52.078;21.014;2024-02-16T09:22:01;165962.16;;;8.43;100.00
45255;BME280;30989;52.078;21.014;2024-02-16T09:24:31;165982.22;;;8.50;100.00
45255;BME280;30989;52.078;21.014;2024-02-16T09:26:57;166006.28;;;8.59;100.00
45255;BME280;30989;52.078;21.014;2024-02-16T09:29:26;166034.38;;;8.70;100.00
45255;BME280;30989;52.078;21.014;2024-02-16T09:31:52;166058.47;;;8.79;100.00
45255;BME280;30989;52.078;21.014;2024-02-16T09:34:18;166078.53;;;8.87;100.00
45255;BME280;30989;52.078;21.014;2024-02-16T09:36:43;166111.97;;;8.99;100.00
45255;BME280;30989;52.078;21.014;2024-02-16T09:39:08;166137.41;;;9.09;100.00
45255;BME280;30989;52.078;21.014;2024-02-16T09:41:35;166180.22;;;9.25;100.00
45255;BME280;30989;52.078;21.014;2024-02-16T09:44:03;166201.63;;;9.33;100.00
45255;BME280;30989;52.078;21.014;2024-02-16T09:46:30;166227.06;;;9.43;100.00
45255;BME280;30989;52.078;21.014;2024-02-16T09:49:00;166228.38;;;9.44;100.00
45255;BME280;30989;52.078;21.014;2024-02-16T09:51:26;166259.19;;;9.55;100.00
45255;BME280;30989;52.078;21.014;2024-02-16T09:53:52;166260.50;;;9.56;100.00
45255;BME280;30989;52.078;21.014;2024-02-16T09:56:17;166275.25;;;9.61;100.00
45255;BME280;30989;52.078;21.014;2024-02-16T09:58:43;166284.59;;;9.65;100.00
45255;BME280;30989;52.078;21.014;2024-02-16T10:01:17;166311.38;;;9.75;100.00
45255;BME280;30989;52.078;21.014;2024-02-16T10:03:43;166319.41;;;9.78;100.00
45255;BME280;30989;52.078;21.014;2024-02-16T10:06:12;166346.19;;;9.88;100.00
45255;BME280;30989;52.078;21.014;2024-02-16T10:08:54;166363.59;;;9.95;100.00
45255;BME280;30989;52.078;21.014;2024-02-16T10:11:23;166364.94;;;9.95;100.00
45255;BME280;30989;52.078;21.014;2024-02-16T10:14:01;166418.50;;;10.16;100.00
45255;BME280;30989;52.078;21.014;2024-02-16T10:16:28;166434.59;;;10.22;100.00
45255;BME280;30989;52.078;21.014;2024-02-16T10:19:07;166473.44;;;10.37;100.00
45255;BME280;30989;52.078;21.014;2024-02-16T10:21:35;166515.00;;;10.52;100.00
45255;BME280;30989;52.078;21.014;2024-02-16T10:24:09;166553.84;;;10.67;100.00
45255;BME280;30989;52.078;21.014;2024-02-16T10:26:36;166594.03;;;10.82;100.00
45255;BME280;30989;52.078;21.014;2024-02-16T10:29:08;166654.31;;;11.05;100.00
45255;BME280;30989;52.078;21.014;2024-02-16T10:31:34;166713.28;;;11.27;100.00
45255;BME280;30989;52.078;21.014;2024-02-16T10:34:01;166791.00;;;11.57;99.84
45255;BME280;30989;52.078;21.014;2024-02-16T10:36:33;166919.72;;;12.06;100.00
45255;BME280;30989;52.078;21.014;2024-02-16T10:39:00;167087.31;;;12.69;99.10
45255;BME280;30989;52.078;21.014;2024-02-16T10:41:27;167252.34;;;13.32;93.67
45255;BME280;30989;52.078;21.014;2024-02-16T10:43:56;167395.94;;;13.86;94.79
45255;BME280;30989;52.078;21.014;2024-02-16T10:46:22;167577.19;;;14.55;92.86
45255;BME280;30989;52.078;21.014;2024-02-16T10:48:49;167743.72;;;15.18;90.19
45255;BME280;30989;52.078;21.014;2024-02-16T10:51:17;167875.47;;;15.67;85.53
45255;BME280;30989;52.078;21.014;2024-02-16T10:53:45;168007.13;;;16.17;85.20
45255;BME280;30989;52.078;21.014;2024-02-16T10:56:13;168117.34;;;16.59;82.21
45255;BME280;30989;52.078;21.014;2024-02-16T10:58:38;168214.19;;;16.95;83.34
45255;BME280;30989;52.078;21.014;2024-02-16T11:01:15;168308.31;;;17.31;80.14
45255;BME280;30989;52.078;21.014;2024-02-16T11:03:40;168321.75;;;17.36;80.98
45255;BME280;30989;52.078;21.014;2024-02-16T11:06:16;168340.59;;;17.43;77.54
45255;BME280;30989;52.078;21.014;2024-02-16T11:08:42;168368.81;;;17.54;79.43
45255;BME280;30989;52.078;21.014;2024-02-16T11:11:08;168438.81;;;17.80;75.51
45255;BME280;30989;52.078;21.014;2024-02-16T11:13:37;168473.78;;;17.93;76.55
45255;BME280;30989;52.078;21.014;2024-02-16T11:16:06;168557.19;;;18.25;75.71
45255;BME280;30989;52.078;21.014;2024-02-16T11:18:37;168605.63;;;18.43;74.61
45255;BME280;30989;52.078;21.014;2024-02-16T11:21:04;168662.22;;;18.64;73.10
45255;BME280;30989;52.078;21.014;2024-02-16T11:23:34;168710.66;;;18.83;73.37
45255;BME280;30989;52.078;21.014;2024-02-16T11:26:04;168765.84;;;19.04;72.85
45255;BME280;30989;52.078;21.014;2024-02-16T11:28:35;168802.19;;;19.17;67.21
45255;BME280;30989;52.078;21.014;2024-02-16T11:31:01;168714.69;;;18.84;66.84
45255;BME280;30989;52.078;21.014;2024-02-16T11:33:31;168705.28;;;18.81;69.78
45255;BME280;30989;52.078;21.014;2024-02-16T11:35:58;168699.88;;;18.79;66.47
45255;BME280;30989;52.078;21.014;2024-02-16T11:38:24;168721.41;;;18.87;70.21
45255;BME280;30989;52.078;21.014;2024-02-16T11:43:22;168889.69;;;19.50;70.50
45255;BME280;30989;52.078;21.014;2024-02-16T11:45:50;168978.59;;;19.84;65.38
45255;BME280;30989;52.078;21.014;2024-02-16T11:48:24;169029.78;;;20.03;67.79
45255;BME280;30989;52.078;21.014;2024-02-16T11:50:59;169016.31;;;19.98;67.35
45255;BME280;30989;52.078;21.014;2024-02-16T11:53:25;169051.31;;;20.11;67.33
45255;BME280;30989;52.078;21.014;2024-02-16T11:55:50;169055.38;;;20.13;65.60
45255;BME280;30989;52.078;21.014;2024-02-16T11:58:17;169066.16;;;20.17;66.81
45255;BME280;30989;52.078;21.014;2024-02-16T12:00:47;169083.66;;;20.23;63.99
45255;BME280;30989;52.078;21.014;2024-02-16T12:05:53;169106.56;;;20.32;65.23
45255;BME280;30989;52.078;21.014;2024-02-16T12:08:19;169126.81;;;20.40;64.50
45255;BME280;30989;52.078;21.014;2024-02-16T12:10:50;169105.19;;;20.32;64.50
45255;BME280;30989;52.078;21.014;2024-02-16T12:13:19;169105.19;;;20.32;63.57
45255;BME280;30989;52.078;21.014;2024-02-16T12:15:46;169148.34;;;20.48;63.79
45255;BME280;30989;52.078;21.014;2024-02-16T12:18:27;169210.31;;;20.71;64.41
45255;BME280;30989;52.078;21.014;2024-02-16T12:23:27;169207.63;;;20.70;59.65
45255;BME280;30989;52.078;21.014;2024-02-16T12:25:53;169159.13;;;20.52;60.47
45255;BME280;30989;52.078;21.014;2024-02-16T12:28:19;169120.03;;;20.37;59.36
45255;BME280;30989;52.078;21.014;2024-02-16T12:30:47;169072.88;;;20.19;60.89
45255;BME280;30989;52.078;21.014;2024-02-16T12:33:14;169045.94;;;20.09;61.79
45255;BME280;30989;52.078;21.014;2024-02-16T12:35:40;169004.19;;;19.93;60.16
45255;BME280;30989;52.078;21.014;2024-02-16T12:38:05;169019.00;;;19.99;61.09
45255;BME280;30989;52.078;21.014;2024-02-16T12:40:31;168994.75;;;19.90;60.79
45255;BME280;30989;52.078;21.014;2024-02-16T12:42:57;168971.88;;;19.81;60.55
45255;BME280;30989;52.078;21.014;2024-02-16T12:45:22;168951.69;;;19.74;60.69